sensor_id;sensor_type;location;lat;lon;timestamp;temperature;humidity
59881;DHT22;45751;51.380;10.326;2022-10-16T00:00:48;14.60;99.90
59881;DHT22;45751;51.380;10.326;2022-10-16T00:03:15;14.60;99.90
59881;DHT22;45751;51.380;10.326;2022-10-16T00:05:43;14.60;99.90
59881;DHT22;45751;51.380;10.326;2022-10-16T00:08:13;14.60;99.90
59881;DHT22;45751;51.380;10.326;2022-10-16T00:10:40;14.60;99.90
59881;DHT22;45751;51.380;10.326;2022-10-16T00:13:07;14.60;99.90
59881;DHT22;45751;51.380;10.326;2022-10-16T00:15:36;14.60;99.90
59881;DHT22;45751;51.380;10.326;2022-10-16T00:18:04;14.60;99.90
59881;DHT22;45751;51.380;10.326;2022-10-16T00:20:34;14.60;99.90
59881;DHT22;45751;51.380;10.326;2022-10-16T00:23:01;14.60;99.90
59881;DHT22;45751;51.380;10.326;2022-10-16T00:25:28;14.60;99.90
59881;DHT22;45751;51.380;10.326;2022-10-16T00:27:55;14.60;99.90
59881;DHT22;45751;51.380;10.326;2022-10-16T00:30:21;14.60;99.90
59881;DHT22;45751;51.380;10.326;2022-10-16T00:32:48;14.60;99.90
59881;DHT22;45751;51.380;10.326;2022-10-16T00:35:15;14.60;99.90
59881;DHT22;45751;51.380;10.326;2022-10-16T00:37:41;14.60;99.90
59881;DHT22;45751;51.380;10.326;2022-10-16T00:40:08;14.60;99.90
59881;DHT22;45751;51.380;10.326;2022-10-16T00:42:35;14.60;99.90
59881;DHT22;45751;51.380;10.326;2022-10-16T00:45:03;14.60;99.90
59881;DHT22;45751;51.380;10.326;2022-10-16T00:47:37;14.70;99.90
59881;DHT22;45751;51.380;10.326;2022-10-16T00:50:09;14.60;99.90
59881;DHT22;45751;51.380;10.326;2022-10-16T00:52:39;14.60;99.90
59881;DHT22;45751;51.380;10.326;2022-10-16T00:55:08;14.70;99.90
59881;DHT22;45751;51.380;10.326;2022-10-16T00:57:36;14.60;99.90
59881;DHT22;45751;51.380;10.326;2022-10-16T01:00:06;14.70;99.90
59881;DHT22;45751;51.380;10.326;2022-10-16T01:02:33;14.60;99.90
59881;DHT22;45751;51.380;10.326;2022-10-16T01:05:00;14.60;99.90
59881;DHT22;45751;51.380;10.326;2022-10-16T01:07:51;14.60;99.90
59881;DHT22;45751;51.380;10.326;2022-10-16T01:13:07;14.60;99.90
59881;DHT22;45751;51.380;10.326;2022-10-16T01:15:50;14.60;99.90
59881;DHT22;45751;51.380;10.326;2022-10-16T01:20:51;14.60;99.90
59881;DHT22;45751;51.380;10.326;2022-10-16T01:28:27;14.60;99.90
59881;DHT22;45751;51.380;10.326;2022-10-16T01:30:58;14.60;99.90
59881;DHT22;45751;51.380;10.326;2022-10-16T01:33:42;14.70;99.90
59881;DHT22;45751;51.380;10.326;2022-10-16T01:36:16;14.60;99.90
59881;DHT22;45751;51.380;10.326;2022-10-16T01:38:47;14.60;99.90
59881;DHT22;45751;51.380;10.326;2022-10-16T01:41:26;14.60;99.90
59881;DHT22;45751;51.380;10.326;2022-10-16T01:44:07;14.70;99.90
59881;DHT22;45751;51.380;10.326;2022-10-16T01:46:36;14.60;99.90
59881;DHT22;45751;51.380;10.326;2022-10-16T01:49:03;14.70;99.90
59881;DHT22;45751;51.380;10.326;2022-10-16T01:51:32;14.60;99.90
59881;DHT22;45751;51.380;10.326;2022-10-16T01:54:01;14.70;99.90
59881;DHT22;45751;51.380;10.326;2022-10-16T01:56:29;14.60;99.90
59881;DHT22;45751;51.380;10.326;2022-10-16T01:59:04;14.60;99.90
59881;DHT22;45751;51.380;10.326;2022-10-16T02:01:35;14.70;99.90
59881;DHT22;45751;51.380;10.326;2022-10-16T02:04:20;14.70;99.90
59881;DHT22;45751;51.380;10.326;2022-10-16T02:06:48;14.70;99.90
59881;DHT22;45751;51.380;10.326;2022-10-16T02:09:15;14.70;99.90
59881;DHT22;45751;51.380;10.326;2022-10-16T02:11:43;14.70;99.90
59881;DHT22;45751;51.380;10.326;2022-10-16T02:14:11;14.70;99.90
59881;DHT22;45751;51.380;10.326;2022-10-16T02:16:43;14.70;99.90
59881;DHT22;45751;51.380;10.326;2022-10-16T02:19:13;14.70;99.90
59881;DHT22;45751;51.380;10.326;2022-10-16T02:21:51;14.70;99.90
59881;DHT22;45751;51.380;10.326;2022-10-16T02:29:57;14.70;99.90
59881;DHT22;45751;51.380;10.326;2022-10-16T02:32:30;14.70;99.90
59881;DHT22;45751;51.380;10.326;2022-10-16T02:34:58;14.70;99.90
59881;DHT22;45751;51.380;10.326;2022-10-16T02:37:27;14.70;99.90
59881;DHT22;45751;51.380;10.326;2022-10-16T02:39:56;14.70;99.90
59881;DHT22;45751;51.380;10.326;2022-10-16T02:42:39;14.70;99.90
59881;DHT22;45751;51.380;10.326;2022-10-16T02:45:07;14.70;99.90
59881;DHT22;45751;51.380;10.326;2022-10-16T02:47:34;14.70;99.90
59881;DHT22;45751;51.380;10.326;2022-10-16T02:50:01;14.70;99.90
59881;DHT22;45751;51.380;10.326;2022-10-16T02:52:28;14.70;99.90
59881;DHT22;45751;51.380;10.326;2022-10-16T02:54:55;14.70;99.90
59881;DHT22;45751;51.380;10.326;2022-10-16T02:57:22;14.70;99.90
59881;DHT22;45751;51.380;10.326;2022-10-16T02:59:49;14.60;99.90
59881;DHT22;45751;51.380;10.326;2022-10-16T03:02:16;14.60;99.90
59881;DHT22;45751;51.380;10.326;2022-10-16T03:04:43;14.60;99.90
59881;DHT22;45751;51.380;10.326;2022-10-16T03:07:09;14.50;99.90
59881;DHT22;45751;51.380;10.326;2022-10-16T03:09:36;14.50;99.90
59881;DHT22;45751;51.380;10.326;2022-10-16T03:12:03;14.50;99.90
59881;DHT22;45751;51.380;10.326;2022-10-16T03:14:30;14.50;99.90
59881;DHT22;45751;51.380;10.326;2022-10-16T03:16:56;14.50;99.90
59881;DHT22;45751;51.380;10.326;2022-10-16T03:19:23;14.50;99.90
59881;DHT22;45751;51.380;10.326;2022-10-16T03:21:50;14.40;99.90
59881;DHT22;45751;51.380;10.326;2022-10-16T03:24:17;14.40;99.90
59881;DHT22;45751;51.380;10.326;2022-10-16T03:26:44;14.30;99.90
59881;DHT22;45751;51.380;10.326;2022-10-16T03:29:10;14.30;99.90
59881;DHT22;45751;51.380;10.326;2022-10-16T03:31:37;14.30;99.90
59881;DHT22;45751;51.380;10.326;2022-10-16T03:34:04;14.30;99.90
59881;DHT22;45751;51.380;10.326;2022-10-16T03:36:30;14.30;99.90
59881;DHT22;45751;51.380;10.326;2022-10-16T03:38:57;14.30;99.90
59881;DHT22;45751;51.380;10.326;2022-10-16T03:41:24;14.20;99.90
59881;DHT22;45751;51.380;10.326;2022-10-16T03:43:51;14.30;99.90
59881;DHT22;45751;51.380;10.326;2022-10-16T03:46:18;14.20;99.90
59881;DHT22;45751;51.380;10.326;2022-10-16T03:48:45;14.20;99.90
59881;DHT22;45751;51.380;10.326;2022-10-16T03:51:12;14.30;99.90
59881;DHT22;45751;51.380;10.326;2022-10-16T03:53:39;14.30;99.90
59881;DHT22;45751;51.380;10.326;2022-10-16T03:56:06;14.30;99.90
59881;DHT22;45751;51.380;10.326;2022-10-16T03:58:33;14.30;99.90
59881;DHT22;45751;51.380;10.326;2022-10-16T04:00:59;14.20;99.90
59881;DHT22;45751;51.380;10.326;2022-10-16T04:03:26;14.20;99.90
59881;DHT22;45751;51.380;10.326;2022-10-16T04:05:53;14.20;99.90
59881;DHT22;45751;51.380;10.326;2022-10-16T04:08:20;14.20;99.90
59881;DHT22;45751;51.380;10.326;2022-10-16T04:10:47;14.20;99.90
59881;DHT22;45751;51.380;10.326;2022-10-16T04:13:14;14.20;99.90
59881;DHT22;45751;51.380;10.326;2022-10-16T04:15:41;14.10;99.90
59881;DHT22;45751;51.380;10.326;2022-10-16T04:18:07;14.20;99.90
59881;DHT22;45751;51.380;10.326;2022-10-16T04:20:34;14.20;99.90
59881;DHT22;45751;51.380;10.326;2022-10-16T04:23:01;14.10;99.90
59881;DHT22;45751;51.380;10.326;2022-10-16T04:25:28;14.10;99.90
59881;DHT22;45751;51.380;10.326;2022-10-16T04:27:55;14.10;99.90
59881;DHT22;45751;51.380;10.326;2022-10-16T04:30:22;14.10;99.90
59881;DHT22;45751;51.380;10.326;2022-10-16T04:32:50;14.10;99.90
59881;DHT22;45751;51.380;10.326;2022-10-16T04:35:18;14.10;99.90
59881;DHT22;45751;51.380;10.326;2022-10-16T04:37:45;14.00;99.90
59881;DHT22;45751;51.380;10.326;2022-10-16T04:40:12;14.00;99.90
59881;DHT22;45751;51.380;10.326;2022-10-16T04:42:40;14.00;99.90
59881;DHT22;45751;51.380;10.326;2022-10-16T04:45:07;14.00;99.90
59881;DHT22;45751;51.380;10.326;2022-10-16T04:47:40;14.00;99.90
59881;DHT22;45751;51.380;10.326;2022-10-16T04:50:07;13.90;99.90
59881;DHT22;45751;51.380;10.326;2022-10-16T04:52:34;13.90;99.90
59881;DHT22;45751;51.380;10.326;2022-10-16T04:55:06;13.90;99.90
59881;DHT22;45751;51.380;10.326;2022-10-16T04:57:33;13.90;99.90
59881;DHT22;45751;51.380;10.326;2022-10-16T05:00:00;13.90;99.90
59881;DHT22;45751;51.380;10.326;2022-10-16T05:02:27;13.90;99.90
59881;DHT22;45751;51.380;10.326;2022-10-16T05:04:53;13.90;99.90
59881;DHT22;45751;51.380;10.326;2022-10-16T05:07:20;13.90;99.90
59881;DHT22;45751;51.380;10.326;2022-10-16T05:09:47;13.90;99.90
59881;DHT22;45751;51.380;10.326;2022-10-16T05:12:14;13.90;99.90
59881;DHT22;45751;51.380;10.326;2022-10-16T05:14:40;13.90;99.90
59881;DHT22;45751;51.380;10.326;2022-10-16T05:17:07;13.90;99.90
59881;DHT22;45751;51.380;10.326;2022-10-16T05:19:34;13.90;99.90
59881;DHT22;45751;51.380;10.326;2022-10-16T05:22:01;14.00;99.90
59881;DHT22;45751;51.380;10.326;2022-10-16T05:24:28;14.00;99.90
59881;DHT22;45751;51.380;10.326;2022-10-16T05:26:54;14.00;99.90
59881;DHT22;45751;51.380;10.326;2022-10-16T05:29:21;14.00;99.90
59881;DHT22;45751;51.380;10.326;2022-10-16T05:31:52;13.80;99.90
59881;DHT22;45751;51.380;10.326;2022-10-16T05:34:20;14.00;99.90
59881;DHT22;45751;51.380;10.326;2022-10-16T05:36:47;14.00;99.90
59881;DHT22;45751;51.380;10.326;2022-10-16T05:39:15;14.00;99.90
59881;DHT22;45751;51.380;10.326;2022-10-16T05:41:42;14.00;99.90
59881;DHT22;45751;51.380;10.326;2022-10-16T05:44:09;14.00;99.90
59881;DHT22;45751;51.380;10.326;2022-10-16T05:46:36;14.00;99.90
59881;DHT22;45751;51.380;10.326;2022-10-16T05:49:03;14.00;99.90
59881;DHT22;45751;51.380;10.326;2022-10-16T05:51:30;14.00;99.90
59881;DHT22;45751;51.380;10.326;2022-10-16T05:53:57;14.00;99.90
59881;DHT22;45751;51.380;10.326;2022-10-16T05:56:23;14.00;99.90
59881;DHT22;45751;51.380;10.326;2022-10-16T05:58:50;14.00;99.90
59881;DHT22;45751;51.380;10.326;2022-10-16T06:01:18;14.00;99.90
59881;DHT22;45751;51.380;10.326;2022-10-16T06:03:45;14.00;99.90
59881;DHT22;45751;51.380;10.326;2022-10-16T06:06:15;14.00;99.90
59881;DHT22;45751;51.380;10.326;2022-10-16T06:08:43;14.00;99.90
59881;DHT22;45751;51.380;10.326;2022-10-16T06:11:13;14.00;99.90
59881;DHT22;45751;51.380;10.326;2022-10-16T06:13:40;13.90;99.90
59881;DHT22;45751;51.380;10.326;2022-10-16T06:16:10;13.90;99.90
59881;DHT22;45751;51.380;10.326;2022-10-16T06:18:37;14.00;99.90
59881;DHT22;45751;51.380;10.326;2022-10-16T06:21:09;13.90;99.90
59881;DHT22;45751;51.380;10.326;2022-10-16T06:23:37;13.90;99.90
59881;DHT22;45751;51.380;10.326;2022-10-16T06:26:15;13.90;99.90
59881;DHT22;45751;51.380;10.326;2022-10-16T06:28:42;13.90;99.90
59881;DHT22;45751;51.380;10.326;2022-10-16T06:31:10;13.90;99.90
59881;DHT22;45751;51.380;10.326;2022-10-16T06:33:38;13.90;99.90
59881;DHT22;45751;51.380;10.326;2022-10-16T06:36:08;14.00;99.90
59881;DHT22;45751;51.380;10.326;2022-10-16T06:38:36;14.00;99.90
59881;DHT22;45751;51.380;10.326;2022-10-16T06:41:03;14.00;99.90
59881;DHT22;45751;51.380;10.326;2022-10-16T06:43:30;14.00;99.90
59881;DHT22;45751;51.380;10.326;2022-10-16T06:46:05;14.00;99.90
59881;DHT22;45751;51.380;10.326;2022-10-16T06:48:34;14.00;99.90
59881;DHT22;45751;51.380;10.326;2022-10-16T06:51:06;14.00;99.90
59881;DHT22;45751;51.380;10.326;2022-10-16T06:53:35;14.10;99.90
59881;DHT22;45751;51.380;10.326;2022-10-16T06:56:18;14.10;99.90
59881;DHT22;45751;51.380;10.326;2022-10-16T06:58:46;14.10;99.90
59881;DHT22;45751;51.380;10.326;2022-10-16T07:01:15;14.10;99.90
59881;DHT22;45751;51.380;10.326;2022-10-16T07:03:43;14.10;99.90
59881;DHT22;45751;51.380;10.326;2022-10-16T07:06:13;14.10;99.90
59881;DHT22;45751;51.380;10.326;2022-10-16T07:08:42;14.20;99.90
59881;DHT22;45751;51.380;10.326;2022-10-16T07:11:12;14.20;99.90
59881;DHT22;45751;51.380;10.326;2022-10-16T07:13:41;14.20;99.90
59881;DHT22;45751;51.380;10.326;2022-10-16T07:18:42;14.20;99.90
59881;DHT22;45751;51.380;10.326;2022-10-16T07:21:14;14.20;99.90
59881;DHT22;45751;51.380;10.326;2022-10-16T07:23:42;14.20;99.90
59881;DHT22;45751;51.380;10.326;2022-10-16T07:26:09;14.20;99.90
59881;DHT22;45751;51.380;10.326;2022-10-16T07:28:37;14.20;99.90
59881;DHT22;45751;51.380;10.326;2022-10-16T07:31:10;14.20;99.90
59881;DHT22;45751;51.380;10.326;2022-10-16T07:33:39;14.20;99.90
59881;DHT22;45751;51.380;10.326;2022-10-16T07:36:06;14.20;99.90
59881;DHT22;45751;51.380;10.326;2022-10-16T07:38:38;14.20;99.90
59881;DHT22;45751;51.380;10.326;2022-10-16T07:41:06;14.20;99.90
59881;DHT22;45751;51.380;10.326;2022-10-16T07:43:33;14.20;99.90
59881;DHT22;45751;51.380;10.326;2022-10-16T07:46:00;14.30;99.90
59881;DHT22;45751;51.380;10.326;2022-10-16T07:48:33;14.30;99.90
59881;DHT22;45751;51.380;10.326;2022-10-16T07:51:04;14.30;99.90
59881;DHT22;45751;51.380;10.326;2022-10-16T07:53:32;14.30;99.90
59881;DHT22;45751;51.380;10.326;2022-10-16T07:56:00;14.30;99.90
59881;DHT22;45751;51.380;10.326;2022-10-16T07:58:30;14.30;99.90
59881;DHT22;45751;51.380;10.326;2022-10-16T08:00:58;14.30;99.90
59881;DHT22;45751;51.380;10.326;2022-10-16T08:03:25;14.30;99.90
59881;DHT22;45751;51.380;10.326;2022-10-16T08:05:52;14.40;99.90
59881;DHT22;45751;51.380;10.326;2022-10-16T08:08:20;14.30;99.90
59881;DHT22;45751;51.380;10.326;2022-10-16T08:10:47;14.30;99.90
59881;DHT22;45751;51.380;10.326;2022-10-16T08:13:16;14.30;99.90
59881;DHT22;45751;51.380;10.326;2022-10-16T08:15:44;14.40;99.90
59881;DHT22;45751;51.380;10.326;2022-10-16T08:18:13;14.40;99.90
59881;DHT22;45751;51.380;10.326;2022-10-16T08:20:40;14.40;99.90
59881;DHT22;45751;51.380;10.326;2022-10-16T08:23:07;14.40;99.90
59881;DHT22;45751;51.380;10.326;2022-10-16T08:25:36;14.40;99.90
59881;DHT22;45751;51.380;10.326;2022-10-16T08:28:04;14.40;99.90
59881;DHT22;45751;51.380;10.326;2022-10-16T08:30:32;14.40;99.90
59881;DHT22;45751;51.380;10.326;2022-10-16T08:33:00;14.40;99.90
59881;DHT22;45751;51.380;10.326;2022-10-16T08:35:27;14.40;99.90
59881;DHT22;45751;51.380;10.326;2022-10-16T08:37:54;14.40;99.90
59881;DHT22;45751;51.380;10.326;2022-10-16T08:40:26;14.40;99.90
59881;DHT22;45751;51.380;10.326;2022-10-16T08:46:20;14.50;99.90
59881;DHT22;45751;51.380;10.326;2022-10-16T08:48:54;14.50;99.90
59881;DHT22;45751;51.380;10.326;2022-10-16T08:51:31;14.50;99.90
59881;DHT22;45751;51.380;10.326;2022-10-16T08:54:04;14.60;99.90
59881;DHT22;45751;51.380;10.326;2022-10-16T08:56:31;14.50;99.90
59881;DHT22;45751;51.380;10.326;2022-10-16T08:59:00;14.60;99.90
59881;DHT22;45751;51.380;10.326;2022-10-16T09:01:41;14.60;99.90
59881;DHT22;45751;51.380;10.326;2022-10-16T09:07:04;14.60;99.90
59881;DHT22;45751;51.380;10.326;2022-10-16T09:10:06;14.80;99.90
59881;DHT22;45751;51.380;10.326;2022-10-16T09:12:42;14.70;99.90
59881;DHT22;45751;51.380;10.326;2022-10-16T09:23:37;14.80;99.90
59881;DHT22;45751;51.380;10.326;2022-10-16T09:26:05;14.80;99.90
59881;DHT22;45751;51.380;10.326;2022-10-16T09:28:36;14.90;99.90
59881;DHT22;45751;51.380;10.326;2022-10-16T09:31:02;14.90;99.90
59881;DHT22;45751;51.380;10.326;2022-10-16T09:33:34;14.90;99.90
59881;DHT22;45751;51.380;10.326;2022-10-16T09:36:03;14.90;99.90
59881;DHT22;45751;51.380;10.326;2022-10-16T09:38:35;15.00;99.90
59881;DHT22;45751;51.380;10.326;2022-10-16T09:44:02;15.10;99.90
59881;DHT22;45751;51.380;10.326;2022-10-16T09:46:36;15.10;99.90
59881;DHT22;45751;51.380;10.326;2022-10-16T09:49:18;15.10;99.90
59881;DHT22;45751;51.380;10.326;2022-10-16T09:51:46;15.10;99.90
59881;DHT22;45751;51.380;10.326;2022-10-16T09:54:19;15.20;99.90
59881;DHT22;45751;51.380;10.326;2022-10-16T09:56:48;15.10;99.90
59881;DHT22;45751;51.380;10.326;2022-10-16T09:59:22;15.10;99.90
59881;DHT22;45751;51.380;10.326;2022-10-16T10:01:54;15.10;99.90
59881;DHT22;45751;51.380;10.326;2022-10-16T10:04:23;15.20;99.90
59881;DHT22;45751;51.380;10.326;2022-10-16T10:06:56;15.20;99.90
59881;DHT22;45751;51.380;10.326;2022-10-16T10:12:02;15.30;99.90
59881;DHT22;45751;51.380;10.326;2022-10-16T10:14:48;15.30;99.90
59881;DHT22;45751;51.380;10.326;2022-10-16T10:17:24;15.30;99.90
59881;DHT22;45751;51.380;10.326;2022-10-16T10:19:56;15.40;99.70
59881;DHT22;45751;51.380;10.326;2022-10-16T10:31:14;15.30;98.90
59881;DHT22;45751;51.380;10.326;2022-10-16T10:47:19;15.50;96.90
59881;DHT22;45751;51.380;10.326;2022-10-16T10:55:58;15.70;95.20
59881;DHT22;45751;51.380;10.326;2022-10-16T11:01:48;15.80;94.80
59881;DHT22;45751;51.380;10.326;2022-10-16T11:04:43;15.80;94.60
59881;DHT22;45751;51.380;10.326;2022-10-16T11:07:31;15.80;94.00
59881;DHT22;45751;51.380;10.326;2022-10-16T11:10:25;15.90;93.10
59881;DHT22;45751;51.380;10.326;2022-10-16T11:12:59;16.00;92.80
59881;DHT22;45751;51.380;10.326;2022-10-16T11:15:37;16.00;93.10
59881;DHT22;45751;51.380;10.326;2022-10-16T11:20:52;16.10;91.70
59881;DHT22;45751;51.380;10.326;2022-10-16T11:23:42;16.10;89.80
59881;DHT22;45751;51.380;10.326;2022-10-16T11:26:18;16.10;89.20
59881;DHT22;45751;51.380;10.326;2022-10-16T11:28:49;16.20;87.90
59881;DHT22;45751;51.380;10.326;2022-10-16T11:31:39;16.30;87.20
59881;DHT22;45751;51.380;10.326;2022-10-16T11:34:15;16.30;87.10
59881;DHT22;45751;51.380;10.326;2022-10-16T11:36:55;16.40;87.00
59881;DHT22;45751;51.380;10.326;2022-10-16T11:39:31;16.50;84.60
59881;DHT22;45751;51.380;10.326;2022-10-16T11:42:22;16.50;84.90
59881;DHT22;45751;51.380;10.326;2022-10-16T11:45:23;16.50;84.50
59881;DHT22;45751;51.380;10.326;2022-10-16T11:47:57;16.60;83.80
59881;DHT22;45751;51.380;10.326;2022-10-16T11:50:37;16.70;81.80
59881;DHT22;45751;51.380;10.326;2022-10-16T11:55:58;16.80;82.40
59881;DHT22;45751;51.380;10.326;2022-10-16T11:58:35;16.90;82.00
59881;DHT22;45751;51.380;10.326;2022-10-16T12:09:34;17.10;76.40
59881;DHT22;45751;51.380;10.326;2022-10-16T12:12:01;17.20;76.00
59881;DHT22;45751;51.380;10.326;2022-10-16T12:14:36;17.30;74.80
59881;DHT22;45751;51.380;10.326;2022-10-16T12:17:27;17.30;74.90
59881;DHT22;45751;51.380;10.326;2022-10-16T12:25:26;17.70;74.00
59881;DHT22;45751;51.380;10.326;2022-10-16T12:30:30;17.80;72.70
59881;DHT22;45751;51.380;10.326;2022-10-16T12:33:03;17.90;72.10
59881;DHT22;45751;51.380;10.326;2022-10-16T12:35:34;18.00;71.10
59881;DHT22;45751;51.380;10.326;2022-10-16T12:38:18;18.10;70.60
59881;DHT22;45751;51.380;10.326;2022-10-16T12:40:58;18.10;71.30
59881;DHT22;45751;51.380;10.326;2022-10-16T12:43:34;18.20;69.90
59881;DHT22;45751;51.380;10.326;2022-10-16T12:46:06;18.20;69.70
59881;DHT22;45751;51.380;10.326;2022-10-16T12:48:47;18.30;69.10
59881;DHT22;45751;51.380;10.326;2022-10-16T12:56:58;18.60;68.20
59881;DHT22;45751;51.380;10.326;2022-10-16T12:59:42;18.80;68.60
59881;DHT22;45751;51.380;10.326;2022-10-16T13:02:39;18.90;67.60
59881;DHT22;45751;51.380;10.326;2022-10-16T13:05:22;19.00;66.90
59881;DHT22;45751;51.380;10.326;2022-10-16T13:11:01;19.10;65.20
59881;DHT22;45751;51.380;10.326;2022-10-16T13:20:10;19.40;64.60
59881;DHT22;45751;51.380;10.326;2022-10-16T13:22:27;19.50;64.00
59881;DHT22;45751;51.380;10.326;2022-10-16T13:25:12;19.60;63.90
59881;DHT22;45751;51.380;10.326;2022-10-16T13:28:00;19.70;63.30
59881;DHT22;45751;51.380;10.326;2022-10-16T13:30:30;19.80;63.60
59881;DHT22;45751;51.380;10.326;2022-10-16T13:33:02;20.00;62.20
59881;DHT22;45751;51.380;10.326;2022-10-16T13:35:33;20.10;60.90
59881;DHT22;45751;51.380;10.326;2022-10-16T13:40:31;20.20;60.80
59881;DHT22;45751;51.380;10.326;2022-10-16T13:43:01;20.20;60.90
59881;DHT22;45751;51.380;10.326;2022-10-16T13:45:28;20.30;60.30
59881;DHT22;45751;51.380;10.326;2022-10-16T13:48:05;20.30;60.30
59881;DHT22;45751;51.380;10.326;2022-10-16T13:50:32;20.40;60.20
59881;DHT22;45751;51.380;10.326;2022-10-16T13:53:13;20.50;60.10
59881;DHT22;45751;51.380;10.326;2022-10-16T13:55:40;20.50;60.50
59881;DHT22;45751;51.380;10.326;2022-10-16T13:58:10;20.50;60.00
59881;DHT22;45751;51.380;10.326;2022-10-16T14:00:38;20.60;59.70
59881;DHT22;45751;51.380;10.326;2022-10-16T14:03:12;20.50;59.40
59881;DHT22;45751;51.380;10.326;2022-10-16T14:05:48;20.50;59.40
59881;DHT22;45751;51.380;10.326;2022-10-16T14:08:16;20.40;59.40
59881;DHT22;45751;51.380;10.326;2022-10-16T14:10:46;20.50;59.20
59881;DHT22;45751;51.380;10.326;2022-10-16T14:13:17;20.40;59.50
59881;DHT22;45751;51.380;10.326;2022-10-16T14:15:50;20.60;59.50
59881;DHT22;45751;51.380;10.326;2022-10-16T14:18:23;20.60;58.90
59881;DHT22;45751;51.380;10.326;2022-10-16T14:20:51;20.50;59.10
59881;DHT22;45751;51.380;10.326;2022-10-16T14:23:28;20.50;58.50
59881;DHT22;45751;51.380;10.326;2022-10-16T14:26:15;20.60;58.80
59881;DHT22;45751;51.380;10.326;2022-10-16T14:28:44;20.50;58.80
59881;DHT22;45751;51.380;10.326;2022-10-16T14:31:27;20.50;59.20
59881;DHT22;45751;51.380;10.326;2022-10-16T14:33:55;20.40;59.30
59881;DHT22;45751;51.380;10.326;2022-10-16T14:36:22;20.40;59.60
59881;DHT22;45751;51.380;10.326;2022-10-16T14:39:17;20.40;59.50
59881;DHT22;45751;51.380;10.326;2022-10-16T14:41:48;20.40;59.90
59881;DHT22;45751;51.380;10.326;2022-10-16T14:44:17;20.30;60.30
59881;DHT22;45751;51.380;10.326;2022-10-16T14:46:44;20.20;60.50
59881;DHT22;45751;51.380;10.326;2022-10-16T14:49:14;20.20;60.80
59881;DHT22;45751;51.380;10.326;2022-10-16T14:51:42;20.10;61.00
59881;DHT22;45751;51.380;10.326;2022-10-16T14:54:16;20.00;61.20
59881;DHT22;45751;51.380;10.326;2022-10-16T14:56:58;20.00;61.40
59881;DHT22;45751;51.380;10.326;2022-10-16T14:59:29;19.90;61.60
59881;DHT22;45751;51.380;10.326;2022-10-16T15:01:56;19.80;61.80
59881;DHT22;45751;51.380;10.326;2022-10-16T15:04:23;19.70;62.20
59881;DHT22;45751;51.380;10.326;2022-10-16T15:06:50;19.70;62.50
59881;DHT22;45751;51.380;10.326;2022-10-16T15:09:16;19.70;62.90
59881;DHT22;45751;51.380;10.326;2022-10-16T15:11:43;19.60;63.00
59881;DHT22;45751;51.380;10.326;2022-10-16T15:14:13;19.60;63.20
59881;DHT22;45751;51.380;10.326;2022-10-16T15:16:45;19.70;63.70
59881;DHT22;45751;51.380;10.326;2022-10-16T15:19:12;19.70;63.90
59881;DHT22;45751;51.380;10.326;2022-10-16T15:21:39;19.70;63.70
59881;DHT22;45751;51.380;10.326;2022-10-16T15:24:11;19.60;63.80
59881;DHT22;45751;51.380;10.326;2022-10-16T15:26:45;19.50;64.40
59881;DHT22;45751;51.380;10.326;2022-10-16T15:29:15;19.50;64.60
59881;DHT22;45751;51.380;10.326;2022-10-16T15:31:42;19.40;64.70
59881;DHT22;45751;51.380;10.326;2022-10-16T15:34:10;19.40;65.10
59881;DHT22;45751;51.380;10.326;2022-10-16T15:36:38;19.40;65.20
59881;DHT22;45751;51.380;10.326;2022-10-16T15:39:06;19.40;65.50
59881;DHT22;45751;51.380;10.326;2022-10-16T15:41:37;19.40;65.70
59881;DHT22;45751;51.380;10.326;2022-10-16T15:44:04;19.40;65.90
59881;DHT22;45751;51.380;10.326;2022-10-16T15:46:31;19.20;66.10
59881;DHT22;45751;51.380;10.326;2022-10-16T15:49:00;19.30;66.50
59881;DHT22;45751;51.380;10.326;2022-10-16T15:51:28;19.30;66.80
59881;DHT22;45751;51.380;10.326;2022-10-16T15:53:56;19.30;67.00
59881;DHT22;45751;51.380;10.326;2022-10-16T15:56:23;19.30;67.20
59881;DHT22;45751;51.380;10.326;2022-10-16T15:58:52;19.30;67.20
59881;DHT22;45751;51.380;10.326;2022-10-16T16:01:20;19.30;68.60
59881;DHT22;45751;51.380;10.326;2022-10-16T16:03:53;19.20;67.50
59881;DHT22;45751;51.380;10.326;2022-10-16T16:06:21;19.20;67.80
59881;DHT22;45751;51.380;10.326;2022-10-16T16:08:48;19.20;68.10
59881;DHT22;45751;51.380;10.326;2022-10-16T16:11:16;19.20;68.30
59881;DHT22;45751;51.380;10.326;2022-10-16T16:13:43;19.10;68.40
59881;DHT22;45751;51.380;10.326;2022-10-16T16:16:12;19.10;68.50
59881;DHT22;45751;51.380;10.326;2022-10-16T16:18:40;19.10;69.00
59881;DHT22;45751;51.380;10.326;2022-10-16T16:21:07;19.10;69.10
59881;DHT22;45751;51.380;10.326;2022-10-16T16:23:36;19.10;69.40
59881;DHT22;45751;51.380;10.326;2022-10-16T16:28:30;19.00;70.00
59881;DHT22;45751;51.380;10.326;2022-10-16T16:30:57;19.00;70.20
59881;DHT22;45751;51.380;10.326;2022-10-16T16:33:24;18.90;70.70
59881;DHT22;45751;51.380;10.326;2022-10-16T16:35:56;18.80;70.90
59881;DHT22;45751;51.380;10.326;2022-10-16T16:38:23;18.80;71.50
59881;DHT22;45751;51.380;10.326;2022-10-16T16:40:50;18.70;71.90
59881;DHT22;45751;51.380;10.326;2022-10-16T16:43:26;18.60;72.50
59881;DHT22;45751;51.380;10.326;2022-10-16T16:45:53;18.60;73.20
59881;DHT22;45751;51.380;10.326;2022-10-16T16:48:21;18.50;73.70
59881;DHT22;45751;51.380;10.326;2022-10-16T16:50:48;18.40;74.30
59881;DHT22;45751;51.380;10.326;2022-10-16T16:53:15;18.30;74.60
59881;DHT22;45751;51.380;10.326;2022-10-16T16:55:42;18.30;75.10
59881;DHT22;45751;51.380;10.326;2022-10-16T16:58:08;18.20;75.70
59881;DHT22;45751;51.380;10.326;2022-10-16T17:00:35;18.10;76.50
59881;DHT22;45751;51.380;10.326;2022-10-16T17:03:02;18.10;76.90
59881;DHT22;45751;51.380;10.326;2022-10-16T17:05:29;18.00;77.10
59881;DHT22;45751;51.380;10.326;2022-10-16T17:07:56;17.90;77.60
59881;DHT22;45751;51.380;10.326;2022-10-16T17:10:22;17.90;78.40
59881;DHT22;45751;51.380;10.326;2022-10-16T17:12:49;17.70;78.90
59881;DHT22;45751;51.380;10.326;2022-10-16T17:15:17;17.70;79.60
59881;DHT22;45751;51.380;10.326;2022-10-16T17:17:44;17.60;80.00
59881;DHT22;45751;51.380;10.326;2022-10-16T17:20:11;17.50;80.40
59881;DHT22;45751;51.380;10.326;2022-10-16T17:22:37;17.50;80.90
59881;DHT22;45751;51.380;10.326;2022-10-16T17:25:05;17.40;81.30
59881;DHT22;45751;51.380;10.326;2022-10-16T17:27:34;17.30;81.90